sensor_id;sensor_type;location;lat;lon;timestamp;P1;durP1;ratioP1;P2;durP2;ratioP2
13941;SDS011;7043;51.630;7.254;2022-10-17T00:01:51;10.40;;;9.47;;
13941;SDS011;7043;51.630;7.254;2022-10-17T00:04:17;11.40;;;10.40;;
13941;SDS011;7043;51.630;7.254;2022-10-17T00:06:44;12.33;;;11.10;;
13941;SDS011;7043;51.630;7.254;2022-10-17T00:09:10;12.03;;;10.83;;
13941;SDS011;7043;51.630;7.254;2022-10-17T00:11:35;11.87;;;10.77;;
13941;SDS011;7043;51.630;7.254;2022-10-17T00:14:01;12.03;;;10.47;;
13941;SDS011;7043;51.630;7.254;2022-10-17T00:16:29;13.00;;;11.70;;
13941;SDS011;7043;51.630;7.254;2022-10-17T00:18:56;11.80;;;10.70;;
13941;SDS011;7043;51.630;7.254;2022-10-17T00:21:23;12.97;;;11.77;;
13941;SDS011;7043;51.630;7.254;2022-10-17T00:23:49;11.43;;;10.43;;
13941;SDS011;7043;51.630;7.254;2022-10-17T00:26:15;12.37;;;11.13;;
13941;SDS011;7043;51.630;7.254;2022-10-17T00:28:41;10.60;;;9.70;;
13941;SDS011;7043;51.630;7.254;2022-10-17T00:31:07;12.43;;;10.30;;
13941;SDS011;7043;51.630;7.254;2022-10-17T00:33:34;11.00;;;9.93;;
13941;SDS011;7043;51.630;7.254;2022-10-17T00:36:03;12.37;;;11.30;;
13941;SDS011;7043;51.630;7.254;2022-10-17T00:38:30;12.10;;;10.90;;
13941;SDS011;7043;51.630;7.254;2022-10-17T00:40:56;13.13;;;11.80;;
13941;SDS011;7043;51.630;7.254;2022-10-17T00:43:22;12.43;;;11.23;;
13941;SDS011;7043;51.630;7.254;2022-10-17T00:45:48;13.50;;;12.10;;
13941;SDS011;7043;51.630;7.254;2022-10-17T00:48:14;13.77;;;12.47;;
13941;SDS011;7043;51.630;7.254;2022-10-17T00:50:42;14.60;;;13.17;;
13941;SDS011;7043;51.630;7.254;2022-10-17T00:53:08;14.03;;;12.73;;
13941;SDS011;7043;51.630;7.254;2022-10-17T00:55:44;15.03;;;13.53;;
13941;SDS011;7043;51.630;7.254;2022-10-17T00:58:12;14.63;;;13.03;;
13941;SDS011;7043;51.630;7.254;2022-10-17T01:00:38;15.23;;;12.73;;
13941;SDS011;7043;51.630;7.254;2022-10-17T01:03:04;13.40;;;12.13;;
13941;SDS011;7043;51.630;7.254;2022-10-17T01:05:30;14.50;;;13.20;;
13941;SDS011;7043;51.630;7.254;2022-10-17T01:07:56;13.57;;;12.33;;
13941;SDS011;7043;51.630;7.254;2022-10-17T01:10:24;14.33;;;12.97;;
13941;SDS011;7043;51.630;7.254;2022-10-17T01:18:00;14.53;;;13.23;;
13941;SDS011;7043;51.630;7.254;2022-10-17T01:20:36;13.60;;;12.40;;
13941;SDS011;7043;51.630;7.254;2022-10-17T01:23:26;13.37;;;12.07;;
13941;SDS011;7043;51.630;7.254;2022-10-17T01:26:13;14.30;;;12.90;;
13941;SDS011;7043;51.630;7.254;2022-10-17T01:31:11;14.47;;;13.07;;
13941;SDS011;7043;51.630;7.254;2022-10-17T01:33:42;13.13;;;11.87;;
13941;SDS011;7043;51.630;7.254;2022-10-17T01:36:11;12.47;;;11.27;;
13941;SDS011;7043;51.630;7.254;2022-10-17T01:38:45;11.80;;;10.80;;
13941;SDS011;7043;51.630;7.254;2022-10-17T01:41:18;12.00;;;11.00;;
13941;SDS011;7043;51.630;7.254;2022-10-17T01:43:54;12.40;;;11.13;;
13941;SDS011;7043;51.630;7.254;2022-10-17T01:46:28;11.17;;;10.33;;
13941;SDS011;7043;51.630;7.254;2022-10-17T01:48:54;12.20;;;11.20;;
13941;SDS011;7043;51.630;7.254;2022-10-17T01:51:33;11.80;;;10.67;;
13941;SDS011;7043;51.630;7.254;2022-10-17T01:54:01;10.80;;;9.70;;
13941;SDS011;7043;51.630;7.254;2022-10-17T01:56:29;10.90;;;9.90;;
13941;SDS011;7043;51.630;7.254;2022-10-17T01:58:57;11.57;;;10.17;;
13941;SDS011;7043;51.630;7.254;2022-10-17T02:01:25;10.60;;;9.70;;
13941;SDS011;7043;51.630;7.254;2022-10-17T02:03:52;11.60;;;9.70;;
13941;SDS011;7043;51.630;7.254;2022-10-17T02:06:19;10.00;;;9.00;;
13941;SDS011;7043;51.630;7.254;2022-10-17T02:08:48;10.67;;;9.57;;
13941;SDS011;7043;51.630;7.254;2022-10-17T02:24:09;10.77;;;9.77;;
13941;SDS011;7043;51.630;7.254;2022-10-17T02:26:43;10.83;;;9.77;;
13941;SDS011;7043;51.630;7.254;2022-10-17T02:29:21;11.40;;;10.30;;
13941;SDS011;7043;51.630;7.254;2022-10-17T02:31:50;11.90;;;10.77;;
13941;SDS011;7043;51.630;7.254;2022-10-17T02:34:26;11.83;;;10.43;;
13941;SDS011;7043;51.630;7.254;2022-10-17T02:36:57;11.50;;;9.83;;
13941;SDS011;7043;51.630;7.254;2022-10-17T02:39:24;11.57;;;10.47;;
13941;SDS011;7043;51.630;7.254;2022-10-17T02:41:52;11.40;;;10.23;;
13941;SDS011;7043;51.630;7.254;2022-10-17T02:44:19;11.40;;;10.30;;
13941;SDS011;7043;51.630;7.254;2022-10-17T02:46:47;11.87;;;9.93;;
13941;SDS011;7043;51.630;7.254;2022-10-17T02:49:17;10.90;;;9.90;;
13941;SDS011;7043;51.630;7.254;2022-10-17T02:51:46;11.57;;;10.37;;
13941;SDS011;7043;51.630;7.254;2022-10-17T02:56:52;11.27;;;10.17;;
13941;SDS011;7043;51.630;7.254;2022-10-17T02:59:20;11.53;;;10.43;;
13941;SDS011;7043;51.630;7.254;2022-10-17T03:01:48;11.20;;;10.10;;
13941;SDS011;7043;51.630;7.254;2022-10-17T03:04:15;10.93;;;9.93;;
13941;SDS011;7043;51.630;7.254;2022-10-17T03:06:42;10.90;;;9.90;;
13941;SDS011;7043;51.630;7.254;2022-10-17T03:09:09;12.20;;;9.90;;
13941;SDS011;7043;51.630;7.254;2022-10-17T03:11:35;10.93;;;9.70;;
13941;SDS011;7043;51.630;7.254;2022-10-17T03:14:01;10.87;;;9.93;;
13941;SDS011;7043;51.630;7.254;2022-10-17T03:16:27;11.03;;;10.00;;
13941;SDS011;7043;51.630;7.254;2022-10-17T03:18:53;11.07;;;10.07;;
13941;SDS011;7043;51.630;7.254;2022-10-17T03:21:19;12.13;;;10.23;;
13941;SDS011;7043;51.630;7.254;2022-10-17T03:23:45;11.30;;;10.00;;
13941;SDS011;7043;51.630;7.254;2022-10-17T03:26:11;10.90;;;9.40;;
13941;SDS011;7043;51.630;7.254;2022-10-17T03:28:37;11.20;;;9.83;;
13941;SDS011;7043;51.630;7.254;2022-10-17T03:31:07;10.77;;;9.83;;
13941;SDS011;7043;51.630;7.254;2022-10-17T03:33:34;11.17;;;10.07;;
13941;SDS011;7043;51.630;7.254;2022-10-17T03:36:04;12.03;;;9.90;;
13941;SDS011;7043;51.630;7.254;2022-10-17T03:38:30;12.73;;;9.77;;
13941;SDS011;7043;51.630;7.254;2022-10-17T03:40:56;11.07;;;9.80;;
13941;SDS011;7043;51.630;7.254;2022-10-17T03:43:22;11.03;;;9.17;;
13941;SDS011;7043;51.630;7.254;2022-10-17T03:45:48;10.60;;;8.43;;
13941;SDS011;7043;51.630;7.254;2022-10-17T03:48:14;9.67;;;8.77;;
13941;SDS011;7043;51.630;7.254;2022-10-17T03:50:40;9.93;;;8.77;;
13941;SDS011;7043;51.630;7.254;2022-10-17T03:53:06;11.23;;;8.63;;
13941;SDS011;7043;51.630;7.254;2022-10-17T03:55:32;10.03;;;7.93;;
13941;SDS011;7043;51.630;7.254;2022-10-17T03:57:58;9.60;;;8.67;;
13941;SDS011;7043;51.630;7.254;2022-10-17T04:00:24;11.40;;;9.00;;
13941;SDS011;7043;51.630;7.254;2022-10-17T04:02:50;10.67;;;8.57;;
13941;SDS011;7043;51.630;7.254;2022-10-17T04:05:16;14.50;;;11.43;;
13941;SDS011;7043;51.630;7.254;2022-10-17T04:07:42;10.77;;;8.23;;
13941;SDS011;7043;51.630;7.254;2022-10-17T04:10:08;9.83;;;7.93;;
13941;SDS011;7043;51.630;7.254;2022-10-17T04:12:34;9.80;;;8.03;;
13941;SDS011;7043;51.630;7.254;2022-10-17T04:15:00;9.17;;;7.83;;
13941;SDS011;7043;51.630;7.254;2022-10-17T04:17:28;9.83;;;8.83;;
13941;SDS011;7043;51.630;7.254;2022-10-17T04:19:54;9.83;;;8.30;;
13941;SDS011;7043;51.630;7.254;2022-10-17T04:22:20;9.13;;;8.00;;
13941;SDS011;7043;51.630;7.254;2022-10-17T04:24:46;8.60;;;7.70;;
13941;SDS011;7043;51.630;7.254;2022-10-17T04:27:12;8.47;;;7.57;;
13941;SDS011;7043;51.630;7.254;2022-10-17T04:29:38;9.10;;;7.80;;
13941;SDS011;7043;51.630;7.254;2022-10-17T04:32:04;9.50;;;7.80;;
13941;SDS011;7043;51.630;7.254;2022-10-17T04:34:30;8.47;;;7.57;;
13941;SDS011;7043;51.630;7.254;2022-10-17T04:36:57;7.50;;;6.77;;
13941;SDS011;7043;51.630;7.254;2022-10-17T04:39:23;8.40;;;7.13;;
13941;SDS011;7043;51.630;7.254;2022-10-17T04:41:49;7.30;;;6.60;;
13941;SDS011;7043;51.630;7.254;2022-10-17T04:44:15;8.73;;;6.10;;
13941;SDS011;7043;51.630;7.254;2022-10-17T04:46:41;9.97;;;7.20;;
13941;SDS011;7043;51.630;7.254;2022-10-17T04:49:07;7.90;;;7.17;;
13941;SDS011;7043;51.630;7.254;2022-10-17T04:51:33;8.70;;;7.10;;
13941;SDS011;7043;51.630;7.254;2022-10-17T04:53:59;8.27;;;7.47;;
13941;SDS011;7043;51.630;7.254;2022-10-17T04:56:25;8.43;;;7.00;;
13941;SDS011;7043;51.630;7.254;2022-10-17T04:58:51;7.70;;;7.00;;
13941;SDS011;7043;51.630;7.254;2022-10-17T05:01:18;7.37;;;6.53;;
13941;SDS011;7043;51.630;7.254;2022-10-17T05:03:45;8.70;;;6.90;;
13941;SDS011;7043;51.630;7.254;2022-10-17T05:06:15;8.93;;;7.43;;
13941;SDS011;7043;51.630;7.254;2022-10-17T05:08:42;8.23;;;6.90;;
13941;SDS011;7043;51.630;7.254;2022-10-17T05:11:16;7.63;;;6.90;;
13941;SDS011;7043;51.630;7.254;2022-10-17T05:13:42;7.23;;;6.47;;
13941;SDS011;7043;51.630;7.254;2022-10-17T05:16:08;9.47;;;7.00;;
13941;SDS011;7043;51.630;7.254;2022-10-17T05:18:35;7.47;;;6.77;;
13941;SDS011;7043;51.630;7.254;2022-10-17T05:21:02;7.93;;;6.33;;
13941;SDS011;7043;51.630;7.254;2022-10-17T05:23:28;9.00;;;6.70;;
13941;SDS011;7043;51.630;7.254;2022-10-17T05:25:55;9.57;;;6.60;;
13941;SDS011;7043;51.630;7.254;2022-10-17T05:28:21;7.60;;;6.10;;
13941;SDS011;7043;51.630;7.254;2022-10-17T05:30:48;7.63;;;6.40;;
13941;SDS011;7043;51.630;7.254;2022-10-17T05:33:14;7.57;;;6.03;;
13941;SDS011;7043;51.630;7.254;2022-10-17T05:35:40;9.07;;;7.43;;
13941;SDS011;7043;51.630;7.254;2022-10-17T05:38:06;7.27;;;6.57;;
13941;SDS011;7043;51.630;7.254;2022-10-17T05:40:32;7.27;;;6.50;;
13941;SDS011;7043;51.630;7.254;2022-10-17T05:42:58;8.17;;;7.37;;
13941;SDS011;7043;51.630;7.254;2022-10-17T05:45:24;7.43;;;6.67;;
13941;SDS011;7043;51.630;7.254;2022-10-17T05:47:50;9.23;;;6.90;;
13941;SDS011;7043;51.630;7.254;2022-10-17T05:50:16;8.20;;;6.47;;
13941;SDS011;7043;51.630;7.254;2022-10-17T05:52:45;7.57;;;6.73;;
13941;SDS011;7043;51.630;7.254;2022-10-17T05:55:11;8.17;;;6.60;;
13941;SDS011;7043;51.630;7.254;2022-10-17T05:57:37;8.00;;;6.87;;
13941;SDS011;7043;51.630;7.254;2022-10-17T06:00:04;7.47;;;6.60;;
13941;SDS011;7043;51.630;7.254;2022-10-17T06:02:30;7.03;;;6.27;;
13941;SDS011;7043;51.630;7.254;2022-10-17T06:04:56;6.63;;;5.97;;
13941;SDS011;7043;51.630;7.254;2022-10-17T06:07:22;7.63;;;6.47;;
13941;SDS011;7043;51.630;7.254;2022-10-17T06:09:50;8.60;;;6.40;;
13941;SDS011;7043;51.630;7.254;2022-10-17T06:12:17;7.73;;;6.40;;
13941;SDS011;7043;51.630;7.254;2022-10-17T06:14:43;7.57;;;6.73;;
13941;SDS011;7043;51.630;7.254;2022-10-17T06:17:09;7.10;;;6.40;;
13941;SDS011;7043;51.630;7.254;2022-10-17T06:19:35;7.23;;;6.43;;
13941;SDS011;7043;51.630;7.254;2022-10-17T06:22:01;7.20;;;5.93;;
13941;SDS011;7043;51.630;7.254;2022-10-17T06:24:27;6.50;;;5.77;;
13941;SDS011;7043;51.630;7.254;2022-10-17T06:26:53;6.57;;;5.83;;
13941;SDS011;7043;51.630;7.254;2022-10-17T06:29:19;7.47;;;6.53;;
13941;SDS011;7043;51.630;7.254;2022-10-17T06:31:45;7.83;;;6.27;;
13941;SDS011;7043;51.630;7.254;2022-10-17T06:34:11;7.87;;;6.13;;
13941;SDS011;7043;51.630;7.254;2022-10-17T06:36:37;8.23;;;6.03;;
13941;SDS011;7043;51.630;7.254;2022-10-17T06:39:03;6.77;;;6.07;;
13941;SDS011;7043;51.630;7.254;2022-10-17T06:41:29;9.53;;;6.03;;
13941;SDS011;7043;51.630;7.254;2022-10-17T06:43:55;7.57;;;5.57;;
13941;SDS011;7043;51.630;7.254;2022-10-17T06:46:21;7.50;;;6.17;;
13941;SDS011;7043;51.630;7.254;2022-10-17T06:49:09;7.70;;;5.87;;
13941;SDS011;7043;51.630;7.254;2022-10-17T06:54:29;6.37;;;5.70;;
13941;SDS011;7043;51.630;7.254;2022-10-17T06:56:55;7.10;;;6.03;;
13941;SDS011;7043;51.630;7.254;2022-10-17T06:59:21;7.87;;;6.27;;
13941;SDS011;7043;51.630;7.254;2022-10-17T07:01:47;8.83;;;6.00;;
13941;SDS011;7043;51.630;7.254;2022-10-17T07:04:13;7.67;;;5.97;;
13941;SDS011;7043;51.630;7.254;2022-10-17T07:06:39;6.83;;;5.73;;
13941;SDS011;7043;51.630;7.254;2022-10-17T07:09:05;6.63;;;5.90;;
13941;SDS011;7043;51.630;7.254;2022-10-17T07:11:32;5.80;;;5.20;;
13941;SDS011;7043;51.630;7.254;2022-10-17T07:14:01;6.40;;;5.13;;
13941;SDS011;7043;51.630;7.254;2022-10-17T07:16:27;8.90;;;5.80;;
13941;SDS011;7043;51.630;7.254;2022-10-17T07:18:53;5.90;;;5.30;;
13941;SDS011;7043;51.630;7.254;2022-10-17T07:21:19;6.10;;;5.40;;
13941;SDS011;7043;51.630;7.254;2022-10-17T07:23:46;6.33;;;5.33;;
13941;SDS011;7043;51.630;7.254;2022-10-17T07:26:13;5.50;;;4.97;;
13941;SDS011;7043;51.630;7.254;2022-10-17T07:28:40;5.93;;;5.20;;
13941;SDS011;7043;51.630;7.254;2022-10-17T07:31:08;5.70;;;5.10;;
13941;SDS011;7043;51.630;7.254;2022-10-17T07:33:35;5.60;;;5.10;;
13941;SDS011;7043;51.630;7.254;2022-10-17T07:36:01;5.73;;;5.07;;
13941;SDS011;7043;51.630;7.254;2022-10-17T07:38:28;5.60;;;4.90;;
13941;SDS011;7043;51.630;7.254;2022-10-17T07:40:54;5.50;;;4.93;;
13941;SDS011;7043;51.630;7.254;2022-10-17T07:43:21;5.57;;;4.90;;
13941;SDS011;7043;51.630;7.254;2022-10-17T07:45:47;6.30;;;5.07;;
13941;SDS011;7043;51.630;7.254;2022-10-17T07:48:13;7.27;;;4.77;;
13941;SDS011;7043;51.630;7.254;2022-10-17T07:50:39;7.85;;;5.28;;
13941;SDS011;7043;51.630;7.254;2022-10-17T07:53:05;7.80;;;4.60;;
13941;SDS011;7043;51.630;7.254;2022-10-17T07:55:31;5.57;;;4.50;;
13941;SDS011;7043;51.630;7.254;2022-10-17T07:57:57;7.05;;;4.90;;
13941;SDS011;7043;51.630;7.254;2022-10-17T08:00:24;8.50;;;4.50;;
13941;SDS011;7043;51.630;7.254;2022-10-17T08:02:50;5.78;;;4.60;;
13941;SDS011;7043;51.630;7.254;2022-10-17T08:05:16;7.47;;;4.70;;
13941;SDS011;7043;51.630;7.254;2022-10-17T08:07:42;5.95;;;4.35;;
13941;SDS011;7043;51.630;7.254;2022-10-17T08:10:10;5.95;;;4.85;;
13941;SDS011;7043;51.630;7.254;2022-10-17T08:12:36;7.72;;;4.60;;
13941;SDS011;7043;51.630;7.254;2022-10-17T08:15:03;5.00;;;4.45;;
13941;SDS011;7043;51.630;7.254;2022-10-17T08:17:29;5.97;;;4.82;;
13941;SDS011;7043;51.630;7.254;2022-10-17T08:19:55;6.55;;;4.40;;
13941;SDS011;7043;51.630;7.254;2022-10-17T08:22:21;6.90;;;4.57;;
13941;SDS011;7043;51.630;7.254;2022-10-17T08:24:47;9.30;;;4.57;;
13941;SDS011;7043;51.630;7.254;2022-10-17T08:27:13;8.63;;;4.45;;
13941;SDS011;7043;51.630;7.254;2022-10-17T08:29:45;5.30;;;4.30;;
13941;SDS011;7043;51.630;7.254;2022-10-17T08:32:12;5.90;;;5.03;;
13941;SDS011;7043;51.630;7.254;2022-10-17T08:34:39;7.82;;;5.90;;
13941;SDS011;7043;51.630;7.254;2022-10-17T08:37:04;5.70;;;5.10;;
13941;SDS011;7043;51.630;7.254;2022-10-17T08:39:30;4.68;;;4.13;;
13941;SDS011;7043;51.630;7.254;2022-10-17T08:47:04;5.95;;;4.10;;
13941;SDS011;7043;51.630;7.254;2022-10-17T08:49:45;6.53;;;4.20;;
13941;SDS011;7043;51.630;7.254;2022-10-17T08:52:19;6.88;;;5.53;;
13941;SDS011;7043;51.630;7.254;2022-10-17T08:54:47;6.53;;;5.38;;
13941;SDS011;7043;51.630;7.254;2022-10-17T08:57:14;8.50;;;4.57;;
13941;SDS011;7043;51.630;7.254;2022-10-17T08:59:41;5.57;;;4.05;;
13941;SDS011;7043;51.630;7.254;2022-10-17T09:12:17;5.70;;;4.03;;
13941;SDS011;7043;51.630;7.254;2022-10-17T09:22:24;5.47;;;3.92;;
13941;SDS011;7043;51.630;7.254;2022-10-17T09:24:53;5.18;;;4.25;;
13941;SDS011;7043;51.630;7.254;2022-10-17T09:27:25;5.25;;;3.90;;
13941;SDS011;7043;51.630;7.254;2022-10-17T09:32:37;5.80;;;3.58;;
13941;SDS011;7043;51.630;7.254;2022-10-17T09:35:07;3.65;;;3.33;;
13941;SDS011;7043;51.630;7.254;2022-10-17T09:37:36;5.10;;;3.97;;
13941;SDS011;7043;51.630;7.254;2022-10-17T09:40:03;4.60;;;3.80;;
13941;SDS011;7043;51.630;7.254;2022-10-17T09:42:30;4.95;;;3.65;;
13941;SDS011;7043;51.630;7.254;2022-10-17T09:45:19;8.73;;;4.22;;
13941;SDS011;7043;51.630;7.254;2022-10-17T09:50:19;5.65;;;3.75;;
13941;SDS011;7043;51.630;7.254;2022-10-17T09:52:46;5.80;;;3.65;;
13941;SDS011;7043;51.630;7.254;2022-10-17T09:55:36;4.15;;;3.75;;
13941;SDS011;7043;51.630;7.254;2022-10-17T09:58:04;5.82;;;3.83;;
13941;SDS011;7043;51.630;7.254;2022-10-17T10:00:51;5.93;;;4.20;;
13941;SDS011;7043;51.630;7.254;2022-10-17T10:03:18;4.00;;;3.58;;
13941;SDS011;7043;51.630;7.254;2022-10-17T10:08:24;6.63;;;4.05;;
13941;SDS011;7043;51.630;7.254;2022-10-17T10:10:56;4.70;;;3.67;;
13941;SDS011;7043;51.630;7.254;2022-10-17T10:13:22;4.53;;;3.50;;
13941;SDS011;7043;51.630;7.254;2022-10-17T10:15:50;5.78;;;3.50;;
13941;SDS011;7043;51.630;7.254;2022-10-17T10:23:36;4.03;;;3.63;;
13941;SDS011;7043;51.630;7.254;2022-10-17T10:26:21;4.22;;;3.83;;
13941;SDS011;7043;51.630;7.254;2022-10-17T10:28:59;6.22;;;3.67;;
13941;SDS011;7043;51.630;7.254;2022-10-17T10:31:27;5.53;;;3.22;;
13941;SDS011;7043;51.630;7.254;2022-10-17T10:33:54;5.18;;;3.75;;
13941;SDS011;7043;51.630;7.254;2022-10-17T10:36:20;4.72;;;3.75;;
13941;SDS011;7043;51.630;7.254;2022-10-17T10:38:51;7.95;;;4.00;;
13941;SDS011;7043;51.630;7.254;2022-10-17T10:41:19;5.28;;;3.70;;
13941;SDS011;7043;51.630;7.254;2022-10-17T10:43:46;6.80;;;3.60;;
13941;SDS011;7043;51.630;7.254;2022-10-17T10:46:22;5.60;;;3.97;;
13941;SDS011;7043;51.630;7.254;2022-10-17T10:48:57;6.22;;;4.03;;
13941;SDS011;7043;51.630;7.254;2022-10-17T10:54:03;5.93;;;4.35;;
13941;SDS011;7043;51.630;7.254;2022-10-17T11:01:36;6.78;;;4.03;;
13941;SDS011;7043;51.630;7.254;2022-10-17T11:06:36;6.28;;;4.38;;
13941;SDS011;7043;51.630;7.254;2022-10-17T11:09:25;10.95;;;4.15;;
13941;SDS011;7043;51.630;7.254;2022-10-17T11:11:59;11.05;;;4.95;;
13941;SDS011;7043;51.630;7.254;2022-10-17T11:17:00;7.30;;;3.80;;
13941;SDS011;7043;51.630;7.254;2022-10-17T11:19:32;6.03;;;3.90;;
13941;SDS011;7043;51.630;7.254;2022-10-17T11:27:51;5.70;;;4.18;;
13941;SDS011;7043;51.630;7.254;2022-10-17T11:30:17;6.07;;;4.25;;
13941;SDS011;7043;51.630;7.254;2022-10-17T11:32:45;7.78;;;4.38;;
13941;SDS011;7043;51.630;7.254;2022-10-17T11:37:46;9.35;;;4.43;;
13941;SDS011;7043;51.630;7.254;2022-10-17T11:40:19;7.25;;;4.22;;
13941;SDS011;7043;51.630;7.254;2022-10-17T11:42:56;6.50;;;4.25;;
13941;SDS011;7043;51.630;7.254;2022-10-17T11:45:25;6.47;;;4.53;;
13941;SDS011;7043;51.630;7.254;2022-10-17T11:47:53;7.00;;;4.32;;
13941;SDS011;7043;51.630;7.254;2022-10-17T11:50:25;6.05;;;3.92;;
13941;SDS011;7043;51.630;7.254;2022-10-17T11:52:54;5.82;;;4.07;;
13941;SDS011;7043;51.630;7.254;2022-10-17T11:55:27;5.88;;;4.35;;
13941;SDS011;7043;51.630;7.254;2022-10-17T12:15:55;5.85;;;4.80;;
13941;SDS011;7043;51.630;7.254;2022-10-17T12:18:26;8.27;;;4.35;;
13941;SDS011;7043;51.630;7.254;2022-10-17T12:20:56;6.32;;;4.15;;
13941;SDS011;7043;51.630;7.254;2022-10-17T12:23:28;6.00;;;4.35;;
13941;SDS011;7043;51.630;7.254;2022-10-17T12:25:58;4.88;;;4.38;;
13941;SDS011;7043;51.630;7.254;2022-10-17T12:33:54;5.15;;;4.40;;
13941;SDS011;7043;51.630;7.254;2022-10-17T12:41:12;8.98;;;4.97;;
13941;SDS011;7043;51.630;7.254;2022-10-17T12:46:10;5.60;;;4.30;;
13941;SDS011;7043;51.630;7.254;2022-10-17T12:56:41;7.32;;;4.82;;
13941;SDS011;7043;51.630;7.254;2022-10-17T13:01:42;9.52;;;4.78;;
13941;SDS011;7043;51.630;7.254;2022-10-17T13:04:09;6.20;;;4.75;;
13941;SDS011;7043;51.630;7.254;2022-10-17T13:06:37;7.05;;;5.03;;
13941;SDS011;7043;51.630;7.254;2022-10-17T13:09:07;7.78;;;4.63;;
13941;SDS011;7043;51.630;7.254;2022-10-17T13:11:35;7.38;;;5.03;;
13941;SDS011;7043;51.630;7.254;2022-10-17T13:14:03;9.77;;;5.50;;
13941;SDS011;7043;51.630;7.254;2022-10-17T13:16:39;6.63;;;4.95;;
13941;SDS011;7043;51.630;7.254;2022-10-17T13:19:13;8.48;;;5.45;;
13941;SDS011;7043;51.630;7.254;2022-10-17T13:21:48;8.38;;;5.47;;
13941;SDS011;7043;51.630;7.254;2022-10-17T13:24:20;7.45;;;5.32;;
13941;SDS011;7043;51.630;7.254;2022-10-17T13:26:47;7.78;;;5.25;;
13941;SDS011;7043;51.630;7.254;2022-10-17T13:29:14;10.50;;;5.35;;
13941;SDS011;7043;51.630;7.254;2022-10-17T13:31:41;6.72;;;4.72;;
13941;SDS011;7043;51.630;7.254;2022-10-17T13:34:18;6.25;;;5.65;;
13941;SDS011;7043;51.630;7.254;2022-10-17T13:36:45;9.07;;;5.35;;
13941;SDS011;7043;51.630;7.254;2022-10-17T13:39:13;10.40;;;6.38;;
13941;SDS011;7043;51.630;7.254;2022-10-17T13:41:40;7.38;;;5.75;;
13941;SDS011;7043;51.630;7.254;2022-10-17T13:44:09;7.68;;;5.70;;
13941;SDS011;7043;51.630;7.254;2022-10-17T13:46:37;7.35;;;6.13;;
13941;SDS011;7043;51.630;7.254;2022-10-17T13:49:25;7.82;;;5.72;;
13941;SDS011;7043;51.630;7.254;2022-10-17T13:51:53;9.15;;;5.93;;
13941;SDS011;7043;51.630;7.254;2022-10-17T13:54:38;6.55;;;5.93;;
13941;SDS011;7043;51.630;7.254;2022-10-17T13:57:05;9.15;;;5.68;;
13941;SDS011;7043;51.630;7.254;2022-10-17T13:59:41;9.23;;;6.00;;
13941;SDS011;7043;51.630;7.254;2022-10-17T14:02:16;8.00;;;5.93;;
13941;SDS011;7043;51.630;7.254;2022-10-17T14:04:42;7.78;;;6.20;;
13941;SDS011;7043;51.630;7.254;2022-10-17T14:07:20;7.15;;;6.22;;
13941;SDS011;7043;51.630;7.254;2022-10-17T14:09:47;7.35;;;6.00;;
13941;SDS011;7043;51.630;7.254;2022-10-17T14:12:13;6.82;;;6.10;;
13941;SDS011;7043;51.630;7.254;2022-10-17T14:14:41;7.10;;;5.93;;
13941;SDS011;7043;51.630;7.254;2022-10-17T14:17:12;8.20;;;6.28;;
13941;SDS011;7043;51.630;7.254;2022-10-17T14:19:38;7.88;;;6.00;;
13941;SDS011;7043;51.630;7.254;2022-10-17T14:22:15;8.40;;;5.60;;
13941;SDS011;7043;51.630;7.254;2022-10-17T14:24:42;6.95;;;5.90;;
13941;SDS011;7043;51.630;7.254;2022-10-17T14:29:53;8.35;;;5.53;;
13941;SDS011;7043;51.630;7.254;2022-10-17T14:32:21;8.88;;;5.88;;
13941;SDS011;7043;51.630;7.254;2022-10-17T14:34:51;6.60;;;5.22;;
13941;SDS011;7043;51.630;7.254;2022-10-17T14:37:24;9.82;;;5.28;;
13941;SDS011;7043;51.630;7.254;2022-10-17T14:39:53;10.63;;;7.90;;
13941;SDS011;7043;51.630;7.254;2022-10-17T14:42:19;8.88;;;5.85;;
13941;SDS011;7043;51.630;7.254;2022-10-17T14:44:49;9.50;;;5.80;;
13941;SDS011;7043;51.630;7.254;2022-10-17T14:47:18;9.82;;;5.65;;
13941;SDS011;7043;51.630;7.254;2022-10-17T14:49:48;7.13;;;5.70;;
13941;SDS011;7043;51.630;7.254;2022-10-17T14:54:40;8.65;;;5.90;;
13941;SDS011;7043;51.630;7.254;2022-10-17T14:57:27;8.75;;;5.60;;
13941;SDS011;7043;51.630;7.254;2022-10-17T14:59:54;8.50;;;5.18;;
13941;SDS011;7043;51.630;7.254;2022-10-17T15:02:21;8.60;;;5.57;;
13941;SDS011;7043;51.630;7.254;2022-10-17T15:04:47;9.20;;;5.57;;
13941;SDS011;7043;51.630;7.254;2022-10-17T15:07:14;8.70;;;5.47;;
13941;SDS011;7043;51.630;7.254;2022-10-17T15:09:40;6.88;;;4.75;;
13941;SDS011;7043;51.630;7.254;2022-10-17T15:12:09;9.02;;;5.25;;
13941;SDS011;7043;51.630;7.254;2022-10-17T15:14:37;8.38;;;5.03;;
13941;SDS011;7043;51.630;7.254;2022-10-17T15:17:07;7.57;;;4.63;;
13941;SDS011;7043;51.630;7.254;2022-10-17T15:19:34;7.45;;;4.95;;
13941;SDS011;7043;51.630;7.254;2022-10-17T15:22:00;10.70;;;5.25;;
13941;SDS011;7043;51.630;7.254;2022-10-17T15:24:26;5.90;;;4.82;;
13941;SDS011;7043;51.630;7.254;2022-10-17T15:26:52;6.55;;;5.15;;
13941;SDS011;7043;51.630;7.254;2022-10-17T15:29:18;9.35;;;5.35;;
13941;SDS011;7043;51.630;7.254;2022-10-17T15:31:44;6.93;;;4.93;;
13941;SDS011;7043;51.630;7.254;2022-10-17T15:34:10;7.85;;;5.10;;
13941;SDS011;7043;51.630;7.254;2022-10-17T15:36:40;7.75;;;5.00;;
13941;SDS011;7043;51.630;7.254;2022-10-17T15:39:08;9.48;;;5.30;;
13941;SDS011;7043;51.630;7.254;2022-10-17T15:41:34;7.45;;;5.05;;
13941;SDS011;7043;51.630;7.254;2022-10-17T15:44:00;8.13;;;5.07;;
13941;SDS011;7043;51.630;7.254;2022-10-17T15:46:31;8.20;;;5.32;;
13941;SDS011;7043;51.630;7.254;2022-10-17T15:49:02;8.40;;;5.47;;
13941;SDS011;7043;51.630;7.254;2022-10-17T15:51:28;7.38;;;5.25;;
13941;SDS011;7043;51.630;7.254;2022-10-17T15:53:54;5.55;;;5.05;;
13941;SDS011;7043;51.630;7.254;2022-10-17T15:56:22;6.53;;;5.28;;
13941;SDS011;7043;51.630;7.254;2022-10-17T15:58:48;6.63;;;4.82;;
13941;SDS011;7043;51.630;7.254;2022-10-17T16:01:18;7.75;;;5.65;;
13941;SDS011;7043;51.630;7.254;2022-10-17T16:03:44;10.75;;;6.03;;
13941;SDS011;7043;51.630;7.254;2022-10-17T16:06:12;8.35;;;5.72;;
13941;SDS011;7043;51.630;7.254;2022-10-17T16:08:38;8.80;;;7.20;;
13941;SDS011;7043;51.630;7.254;2022-10-17T16:11:05;8.63;;;6.93;;
13941;SDS011;7043;51.630;7.254;2022-10-17T16:13:30;10.88;;;7.75;;
13941;SDS011;7043;51.630;7.254;2022-10-17T16:15:56;10.88;;;8.05;;
13941;SDS011;7043;51.630;7.254;2022-10-17T16:18:22;9.55;;;7.57;;
13941;SDS011;7043;51.630;7.254;2022-10-17T16:20:48;10.60;;;8.23;;
13941;SDS011;7043;51.630;7.254;2022-10-17T16:23:14;8.68;;;7.78;;
13941;SDS011;7043;51.630;7.254;2022-10-17T16:25:40;9.52;;;7.50;;
13941;SDS011;7043;51.630;7.254;2022-10-17T16:28:07;6.97;;;6.28;;
13941;SDS011;7043;51.630;7.254;2022-10-17T16:30:33;8.23;;;7.43;;
13941;SDS011;7043;51.630;7.254;2022-10-17T16:33:01;9.98;;;6.72;;
13941;SDS011;7043;51.630;7.254;2022-10-17T16:35:28;11.02;;;7.05;;
13941;SDS011;7043;51.630;7.254;2022-10-17T16:37:54;9.50;;;6.93;;
13941;SDS011;7043;51.630;7.254;2022-10-17T16:40:21;9.80;;;6.70;;
13941;SDS011;7043;51.630;7.254;2022-10-17T16:42:47;8.98;;;6.57;;
13941;SDS011;7043;51.630;7.254;2022-10-17T16:45:15;10.55;;;7.05;;
13941;SDS011;7043;51.630;7.254;2022-10-17T16:47:41;8.63;;;6.47;;
13941;SDS011;7043;51.630;7.254;2022-10-17T16:50:07;8.98;;;7.20;;
13941;SDS011;7043;51.630;7.254;2022-10-17T16:52:33;8.57;;;6.88;;
13941;SDS011;7043;51.630;7.254;2022-10-17T16:54:59;7.97;;;7.18;;
13941;SDS011;7043;51.630;7.254;2022-10-17T16:57:25;7.72;;;6.88;;
13941;SDS011;7043;51.630;7.254;2022-10-17T16:59:51;8.57;;;7.60;;
13941;SDS011;7043;51.630;7.254;2022-10-17T17:02:17;8.40;;;7.60;;
13941;SDS011;7043;51.630;7.254;2022-10-17T17:04:43;10.40;;;7.82;;
13941;SDS011;7043;51.630;7.254;2022-10-17T17:07:09;8.88;;;7.80;;
13941;SDS011;7043;51.630;7.254;2022-10-17T17:09:35;9.98;;;8.00;;
13941;SDS011;7043;51.630;7.254;2022-10-17T17:12:01;9.83;;;8.83;;